sensor_id;sensor_type;location;lat;lon;timestamp;P1;durP1;ratioP1;P2;durP2;ratioP2
11829;SDS011;5972;42.134;24.718;2022-10-30T00:00:58;13.90;;;7.25;;
11829;SDS011;5972;42.134;24.718;2022-10-30T00:03:25;11.23;;;6.70;;
11829;SDS011;5972;42.134;24.718;2022-10-30T00:05:52;9.90;;;6.57;;
11829;SDS011;5972;42.134;24.718;2022-10-30T00:08:20;8.33;;;6.40;;
11829;SDS011;5972;42.134;24.718;2022-10-30T00:10:49;10.73;;;6.40;;
11829;SDS011;5972;42.134;24.718;2022-10-30T00:13:16;8.85;;;6.88;;
11829;SDS011;5972;42.134;24.718;2022-10-30T00:15:50;9.20;;;6.70;;
11829;SDS011;5972;42.134;24.718;2022-10-30T00:18:19;13.88;;;7.57;;
11829;SDS011;5972;42.134;24.718;2022-10-30T00:20:46;8.30;;;6.30;;
11829;SDS011;5972;42.134;24.718;2022-10-30T00:23:13;9.73;;;7.10;;
11829;SDS011;5972;42.134;24.718;2022-10-30T00:25:41;11.17;;;6.80;;
11829;SDS011;5972;42.134;24.718;2022-10-30T00:28:07;10.63;;;6.75;;
11829;SDS011;5972;42.134;24.718;2022-10-30T00:30:34;9.37;;;6.40;;
11829;SDS011;5972;42.134;24.718;2022-10-30T00:33:03;8.10;;;5.97;;
11829;SDS011;5972;42.134;24.718;2022-10-30T00:35:30;10.50;;;6.73;;
11829;SDS011;5972;42.134;24.718;2022-10-30T00:37:58;9.03;;;6.37;;
11829;SDS011;5972;42.134;24.718;2022-10-30T00:40:25;10.07;;;6.57;;
11829;SDS011;5972;42.134;24.718;2022-10-30T00:42:52;9.48;;;6.10;;
11829;SDS011;5972;42.134;24.718;2022-10-30T00:45:19;11.35;;;7.40;;
11829;SDS011;5972;42.134;24.718;2022-10-30T00:47:47;11.60;;;6.55;;
11829;SDS011;5972;42.134;24.718;2022-10-30T00:50:22;10.30;;;6.20;;
11829;SDS011;5972;42.134;24.718;2022-10-30T00:52:53;9.57;;;6.35;;
11829;SDS011;5972;42.134;24.718;2022-10-30T00:55:25;10.30;;;5.83;;
11829;SDS011;5972;42.134;24.718;2022-10-30T00:57:55;7.25;;;5.63;;
11829;SDS011;5972;42.134;24.718;2022-10-30T01:00:24;7.90;;;5.70;;
11829;SDS011;5972;42.134;24.718;2022-10-30T01:02:53;7.05;;;5.97;;
11829;SDS011;5972;42.134;24.718;2022-10-30T01:05:23;10.27;;;6.03;;
11829;SDS011;5972;42.134;24.718;2022-10-30T01:07:53;8.93;;;6.60;;
11829;SDS011;5972;42.134;24.718;2022-10-30T01:10:20;8.20;;;6.23;;
11829;SDS011;5972;42.134;24.718;2022-10-30T01:12:47;13.63;;;6.97;;
11829;SDS011;5972;42.134;24.718;2022-10-30T01:15:16;10.93;;;7.07;;
11829;SDS011;5972;42.134;24.718;2022-10-30T01:18:01;14.70;;;7.07;;
11829;SDS011;5972;42.134;24.718;2022-10-30T01:20:43;13.23;;;6.70;;
11829;SDS011;5972;42.134;24.718;2022-10-30T01:23:24;10.57;;;6.33;;
11829;SDS011;5972;42.134;24.718;2022-10-30T01:26:03;12.33;;;6.90;;
11829;SDS011;5972;42.134;24.718;2022-10-30T01:28:44;12.17;;;6.60;;
11829;SDS011;5972;42.134;24.718;2022-10-30T01:31:25;12.43;;;6.67;;
11829;SDS011;5972;42.134;24.718;2022-10-30T01:34:08;9.30;;;6.00;;
11829;SDS011;5972;42.134;24.718;2022-10-30T01:36:45;13.10;;;6.83;;
11829;SDS011;5972;42.134;24.718;2022-10-30T01:39:17;10.97;;;6.70;;
11829;SDS011;5972;42.134;24.718;2022-10-30T01:41:46;12.53;;;7.50;;
11829;SDS011;5972;42.134;24.718;2022-10-30T01:44:14;11.50;;;7.13;;
11829;SDS011;5972;42.134;24.718;2022-10-30T01:46:48;12.57;;;7.20;;
11829;SDS011;5972;42.134;24.718;2022-10-30T01:49:38;13.40;;;7.17;;
11829;SDS011;5972;42.134;24.718;2022-10-30T01:52:30;14.60;;;6.50;;
11829;SDS011;5972;42.134;24.718;2022-10-30T01:55:09;12.10;;;6.47;;
11829;SDS011;5972;42.134;24.718;2022-10-30T01:57:46;12.60;;;6.57;;
11829;SDS011;5972;42.134;24.718;2022-10-30T02:00:20;10.47;;;6.60;;
11829;SDS011;5972;42.134;24.718;2022-10-30T02:02:48;8.50;;;6.13;;
11829;SDS011;5972;42.134;24.718;2022-10-30T02:05:18;10.03;;;6.43;;
11829;SDS011;5972;42.134;24.718;2022-10-30T02:07:52;8.80;;;6.37;;
11829;SDS011;5972;42.134;24.718;2022-10-30T02:10:19;11.47;;;6.60;;
11829;SDS011;5972;42.134;24.718;2022-10-30T02:12:46;10.13;;;6.77;;
11829;SDS011;5972;42.134;24.718;2022-10-30T02:15:13;10.93;;;7.33;;
11829;SDS011;5972;42.134;24.718;2022-10-30T02:17:41;10.77;;;6.90;;
11829;SDS011;5972;42.134;24.718;2022-10-30T02:20:13;13.97;;;7.90;;
11829;SDS011;5972;42.134;24.718;2022-10-30T02:22:43;10.60;;;7.03;;
11829;SDS011;5972;42.134;24.718;2022-10-30T02:25:11;10.80;;;7.50;;
11829;SDS011;5972;42.134;24.718;2022-10-30T02:27:38;12.70;;;7.67;;
11829;SDS011;5972;42.134;24.718;2022-10-30T02:30:05;17.83;;;8.17;;
11829;SDS011;5972;42.134;24.718;2022-10-30T02:32:33;11.27;;;7.67;;
11829;SDS011;5972;42.134;24.718;2022-10-30T02:35:00;8.87;;;6.77;;
11829;SDS011;5972;42.134;24.718;2022-10-30T02:37:28;11.17;;;6.67;;
11829;SDS011;5972;42.134;24.718;2022-10-30T02:39:56;9.87;;;7.20;;
11829;SDS011;5972;42.134;24.718;2022-10-30T02:42:23;10.60;;;6.50;;
11829;SDS011;5972;42.134;24.718;2022-10-30T02:44:50;11.23;;;6.20;;
11829;SDS011;5972;42.134;24.718;2022-10-30T02:47:16;9.63;;;6.00;;
11829;SDS011;5972;42.134;24.718;2022-10-30T02:49:43;8.37;;;5.83;;
11829;SDS011;5972;42.134;24.718;2022-10-30T02:52:10;10.40;;;5.90;;
11829;SDS011;5972;42.134;24.718;2022-10-30T02:54:38;11.87;;;5.87;;
11829;SDS011;5972;42.134;24.718;2022-10-30T02:57:05;14.00;;;5.80;;
11829;SDS011;5972;42.134;24.718;2022-10-30T02:59:32;10.43;;;5.10;;
11829;SDS011;5972;42.134;24.718;2022-10-30T03:01:59;6.03;;;4.77;;
11829;SDS011;5972;42.134;24.718;2022-10-30T03:04:26;7.10;;;5.77;;
11829;SDS011;5972;42.134;24.718;2022-10-30T03:06:53;14.10;;;6.00;;
11829;SDS011;5972;42.134;24.718;2022-10-30T03:09:20;8.57;;;5.47;;
11829;SDS011;5972;42.134;24.718;2022-10-30T03:11:48;9.17;;;5.70;;
11829;SDS011;5972;42.134;24.718;2022-10-30T03:14:15;10.43;;;5.70;;
11829;SDS011;5972;42.134;24.718;2022-10-30T03:16:41;8.00;;;6.00;;
11829;SDS011;5972;42.134;24.718;2022-10-30T03:19:08;10.40;;;6.87;;
11829;SDS011;5972;42.134;24.718;2022-10-30T03:21:35;10.70;;;6.53;;
11829;SDS011;5972;42.134;24.718;2022-10-30T03:24:02;10.00;;;5.60;;
11829;SDS011;5972;42.134;24.718;2022-10-30T03:26:29;11.43;;;6.17;;
11829;SDS011;5972;42.134;24.718;2022-10-30T03:28:57;11.60;;;6.27;;
11829;SDS011;5972;42.134;24.718;2022-10-30T03:31:24;9.83;;;5.33;;
11829;SDS011;5972;42.134;24.718;2022-10-30T03:33:51;10.57;;;5.50;;
11829;SDS011;5972;42.134;24.718;2022-10-30T03:36:18;9.27;;;5.10;;
11829;SDS011;5972;42.134;24.718;2022-10-30T03:38:45;11.27;;;5.47;;
11829;SDS011;5972;42.134;24.718;2022-10-30T03:41:11;6.37;;;4.97;;
11829;SDS011;5972;42.134;24.718;2022-10-30T03:43:38;7.87;;;5.33;;
11829;SDS011;5972;42.134;24.718;2022-10-30T03:46:07;7.87;;;5.50;;
11829;SDS011;5972;42.134;24.718;2022-10-30T03:48:35;8.30;;;5.50;;
11829;SDS011;5972;42.134;24.718;2022-10-30T03:51:02;12.90;;;5.43;;
11829;SDS011;5972;42.134;24.718;2022-10-30T03:53:29;8.80;;;5.83;;
11829;SDS011;5972;42.134;24.718;2022-10-30T03:55:57;12.37;;;5.67;;
11829;SDS011;5972;42.134;24.718;2022-10-30T03:58:25;10.87;;;5.97;;
11829;SDS011;5972;42.134;24.718;2022-10-30T04:00:52;8.23;;;6.07;;
11829;SDS011;5972;42.134;24.718;2022-10-30T04:03:20;11.70;;;6.10;;
11829;SDS011;5972;42.134;24.718;2022-10-30T04:05:47;6.73;;;5.57;;
11829;SDS011;5972;42.134;24.718;2022-10-30T04:08:15;7.10;;;5.67;;
11829;SDS011;5972;42.134;24.718;2022-10-30T04:10:43;7.53;;;5.60;;
11829;SDS011;5972;42.134;24.718;2022-10-30T04:13:11;10.90;;;6.33;;
11829;SDS011;5972;42.134;24.718;2022-10-30T04:15:39;11.23;;;5.67;;
11829;SDS011;5972;42.134;24.718;2022-10-30T04:18:07;7.87;;;6.13;;
11829;SDS011;5972;42.134;24.718;2022-10-30T04:20:38;10.47;;;5.87;;
11829;SDS011;5972;42.134;24.718;2022-10-30T04:23:05;10.47;;;6.10;;
11829;SDS011;5972;42.134;24.718;2022-10-30T04:25:34;12.40;;;6.50;;
11829;SDS011;5972;42.134;24.718;2022-10-30T04:28:01;7.67;;;5.77;;
11829;SDS011;5972;42.134;24.718;2022-10-30T04:30:28;15.37;;;6.53;;
11829;SDS011;5972;42.134;24.718;2022-10-30T04:32:59;11.53;;;6.57;;
11829;SDS011;5972;42.134;24.718;2022-10-30T04:35:27;9.23;;;5.80;;
11829;SDS011;5972;42.134;24.718;2022-10-30T04:37:57;7.67;;;5.27;;
11829;SDS011;5972;42.134;24.718;2022-10-30T04:40:26;9.80;;;5.90;;
11829;SDS011;5972;42.134;24.718;2022-10-30T04:42:54;9.70;;;5.93;;
11829;SDS011;5972;42.134;24.718;2022-10-30T04:45:21;10.23;;;5.70;;
11829;SDS011;5972;42.134;24.718;2022-10-30T04:47:48;10.13;;;5.63;;
11829;SDS011;5972;42.134;24.718;2022-10-30T04:50:15;10.90;;;5.90;;
11829;SDS011;5972;42.134;24.718;2022-10-30T04:52:42;9.97;;;5.47;;
11829;SDS011;5972;42.134;24.718;2022-10-30T04:55:11;11.80;;;6.13;;
11829;SDS011;5972;42.134;24.718;2022-10-30T04:57:38;8.40;;;5.80;;
11829;SDS011;5972;42.134;24.718;2022-10-30T05:00:05;13.07;;;5.97;;
11829;SDS011;5972;42.134;24.718;2022-10-30T05:02:33;6.27;;;5.10;;
11829;SDS011;5972;42.134;24.718;2022-10-30T05:05:01;7.97;;;5.40;;
11829;SDS011;5972;42.134;24.718;2022-10-30T05:07:28;10.10;;;5.40;;
11829;SDS011;5972;42.134;24.718;2022-10-30T05:09:54;12.70;;;5.87;;
11829;SDS011;5972;42.134;24.718;2022-10-30T05:12:23;7.97;;;5.20;;
11829;SDS011;5972;42.134;24.718;2022-10-30T05:14:49;9.67;;;5.50;;
11829;SDS011;5972;42.134;24.718;2022-10-30T05:17:16;8.97;;;5.80;;
11829;SDS011;5972;42.134;24.718;2022-10-30T05:19:43;10.80;;;5.20;;
11829;SDS011;5972;42.134;24.718;2022-10-30T05:22:10;9.17;;;5.80;;
11829;SDS011;5972;42.134;24.718;2022-10-30T05:24:37;11.17;;;5.70;;
11829;SDS011;5972;42.134;24.718;2022-10-30T05:27:04;7.50;;;5.20;;
11829;SDS011;5972;42.134;24.718;2022-10-30T05:29:32;10.07;;;5.67;;
11829;SDS011;5972;42.134;24.718;2022-10-30T05:31:59;10.60;;;5.00;;
11829;SDS011;5972;42.134;24.718;2022-10-30T05:34:26;7.30;;;5.97;;
11829;SDS011;5972;42.134;24.718;2022-10-30T05:36:53;8.02;;;5.22;;
11829;SDS011;5972;42.134;24.718;2022-10-30T05:39:20;9.40;;;5.65;;
11829;SDS011;5972;42.134;24.718;2022-10-30T05:41:46;10.10;;;4.82;;
11829;SDS011;5972;42.134;24.718;2022-10-30T05:44:13;7.13;;;5.13;;
11829;SDS011;5972;42.134;24.718;2022-10-30T05:46:41;8.40;;;5.40;;
11829;SDS011;5972;42.134;24.718;2022-10-30T05:49:08;7.15;;;5.35;;
11829;SDS011;5972;42.134;24.718;2022-10-30T05:51:35;10.10;;;5.15;;
11829;SDS011;5972;42.134;24.718;2022-10-30T05:54:02;9.48;;;5.35;;
11829;SDS011;5972;42.134;24.718;2022-10-30T05:56:29;10.88;;;5.90;;
11829;SDS011;5972;42.134;24.718;2022-10-30T05:58:56;6.28;;;5.53;;
11829;SDS011;5972;42.134;24.718;2022-10-30T06:01:23;12.40;;;5.80;;
11829;SDS011;5972;42.134;24.718;2022-10-30T06:03:51;11.75;;;6.03;;
11829;SDS011;5972;42.134;24.718;2022-10-30T06:06:18;7.00;;;5.18;;
11829;SDS011;5972;42.134;24.718;2022-10-30T06:08:45;8.82;;;6.18;;
11829;SDS011;5972;42.134;24.718;2022-10-30T06:11:12;10.10;;;5.40;;
11829;SDS011;5972;42.134;24.718;2022-10-30T06:13:39;7.72;;;5.00;;
11829;SDS011;5972;42.134;24.718;2022-10-30T06:16:06;7.03;;;4.50;;
11829;SDS011;5972;42.134;24.718;2022-10-30T06:18:33;8.63;;;4.90;;
11829;SDS011;5972;42.134;24.718;2022-10-30T06:21:01;6.10;;;4.72;;
11829;SDS011;5972;42.134;24.718;2022-10-30T06:23:28;9.70;;;5.10;;
11829;SDS011;5972;42.134;24.718;2022-10-30T06:25:54;7.13;;;4.53;;
11829;SDS011;5972;42.134;24.718;2022-10-30T06:28:21;7.45;;;5.28;;
11829;SDS011;5972;42.134;24.718;2022-10-30T06:30:48;8.05;;;5.28;;
11829;SDS011;5972;42.134;24.718;2022-10-30T06:33:15;7.40;;;4.75;;
11829;SDS011;5972;42.134;24.718;2022-10-30T06:35:42;6.38;;;4.65;;
11829;SDS011;5972;42.134;24.718;2022-10-30T06:38:10;5.57;;;5.00;;
11829;SDS011;5972;42.134;24.718;2022-10-30T06:40:37;6.55;;;4.53;;
11829;SDS011;5972;42.134;24.718;2022-10-30T06:43:04;7.25;;;4.53;;
11829;SDS011;5972;42.134;24.718;2022-10-30T06:45:30;6.88;;;5.35;;
11829;SDS011;5972;42.134;24.718;2022-10-30T06:47:58;8.32;;;5.13;;
11829;SDS011;5972;42.134;24.718;2022-10-30T06:50:25;7.40;;;4.75;;
11829;SDS011;5972;42.134;24.718;2022-10-30T06:52:52;11.85;;;4.88;;
11829;SDS011;5972;42.134;24.718;2022-10-30T06:55:21;16.40;;;4.60;;
11829;SDS011;5972;42.134;24.718;2022-10-30T06:57:52;6.72;;;4.50;;
11829;SDS011;5972;42.134;24.718;2022-10-30T07:00:19;5.95;;;4.50;;
11829;SDS011;5972;42.134;24.718;2022-10-30T07:02:53;10.02;;;5.88;;
11829;SDS011;5972;42.134;24.718;2022-10-30T07:05:20;9.82;;;4.85;;
11829;SDS011;5972;42.134;24.718;2022-10-30T07:07:47;7.38;;;5.00;;
11829;SDS011;5972;42.134;24.718;2022-10-30T07:10:14;6.57;;;4.35;;
11829;SDS011;5972;42.134;24.718;2022-10-30T07:12:43;8.73;;;4.80;;
11829;SDS011;5972;42.134;24.718;2022-10-30T07:15:16;9.00;;;4.22;;
11829;SDS011;5972;42.134;24.718;2022-10-30T07:17:50;8.95;;;4.20;;
11829;SDS011;5972;42.134;24.718;2022-10-30T07:20:17;9.43;;;4.50;;
11829;SDS011;5972;42.134;24.718;2022-10-30T07:22:44;7.00;;;5.15;;
11829;SDS011;5972;42.134;24.718;2022-10-30T07:25:11;6.55;;;3.90;;
11829;SDS011;5972;42.134;24.718;2022-10-30T07:27:40;6.28;;;4.13;;
11829;SDS011;5972;42.134;24.718;2022-10-30T07:30:09;6.78;;;4.70;;
11829;SDS011;5972;42.134;24.718;2022-10-30T07:32:37;5.32;;;4.13;;
11829;SDS011;5972;42.134;24.718;2022-10-30T07:35:04;8.93;;;3.80;;
11829;SDS011;5972;42.134;24.718;2022-10-30T07:37:31;7.82;;;3.70;;
11829;SDS011;5972;42.134;24.718;2022-10-30T07:39:58;5.88;;;4.07;;
11829;SDS011;5972;42.134;24.718;2022-10-30T07:42:25;5.57;;;4.32;;
11829;SDS011;5972;42.134;24.718;2022-10-30T07:44:53;6.18;;;4.30;;
11829;SDS011;5972;42.134;24.718;2022-10-30T07:47:20;8.18;;;4.68;;
11829;SDS011;5972;42.134;24.718;2022-10-30T07:49:47;7.22;;;4.70;;
11829;SDS011;5972;42.134;24.718;2022-10-30T07:52:14;9.85;;;4.65;;
11829;SDS011;5972;42.134;24.718;2022-10-30T07:54:41;8.48;;;4.78;;
11829;SDS011;5972;42.134;24.718;2022-10-30T07:57:07;9.73;;;5.00;;
11829;SDS011;5972;42.134;24.718;2022-10-30T07:59:34;8.18;;;4.82;;
11829;SDS011;5972;42.134;24.718;2022-10-30T08:02:02;13.77;;;5.05;;
11829;SDS011;5972;42.134;24.718;2022-10-30T08:04:29;10.52;;;5.15;;
11829;SDS011;5972;42.134;24.718;2022-10-30T08:06:57;10.00;;;4.63;;
11829;SDS011;5972;42.134;24.718;2022-10-30T08:09:24;6.60;;;4.50;;
11829;SDS011;5972;42.134;24.718;2022-10-30T08:11:50;9.77;;;5.13;;
11829;SDS011;5972;42.134;24.718;2022-10-30T08:14:17;5.45;;;4.32;;
11829;SDS011;5972;42.134;24.718;2022-10-30T08:16:45;6.82;;;4.97;;
11829;SDS011;5972;42.134;24.718;2022-10-30T08:19:13;7.25;;;4.13;;
11829;SDS011;5972;42.134;24.718;2022-10-30T08:21:40;7.47;;;4.88;;
11829;SDS011;5972;42.134;24.718;2022-10-30T08:24:07;8.05;;;4.65;;
11829;SDS011;5972;42.134;24.718;2022-10-30T08:26:34;9.95;;;4.45;;
11829;SDS011;5972;42.134;24.718;2022-10-30T08:29:01;7.50;;;4.43;;
11829;SDS011;5972;42.134;24.718;2022-10-30T08:31:27;7.13;;;4.47;;
11829;SDS011;5972;42.134;24.718;2022-10-30T08:33:54;5.10;;;4.00;;
11829;SDS011;5972;42.134;24.718;2022-10-30T08:36:23;7.82;;;4.50;;
11829;SDS011;5972;42.134;24.718;2022-10-30T08:38:49;6.32;;;4.22;;
11829;SDS011;5972;42.134;24.718;2022-10-30T08:41:16;5.97;;;4.43;;
11829;SDS011;5972;42.134;24.718;2022-10-30T08:43:43;5.82;;;4.18;;
11829;SDS011;5972;42.134;24.718;2022-10-30T08:46:10;8.57;;;4.40;;
11829;SDS011;5972;42.134;24.718;2022-10-30T08:48:37;7.57;;;3.97;;
11829;SDS011;5972;42.134;24.718;2022-10-30T08:51:03;6.78;;;3.40;;
11829;SDS011;5972;42.134;24.718;2022-10-30T08:53:32;9.43;;;3.90;;
11829;SDS011;5972;42.134;24.718;2022-10-30T08:55:59;8.10;;;3.88;;
11829;SDS011;5972;42.134;24.718;2022-10-30T08:58:26;7.55;;;4.10;;
11829;SDS011;5972;42.134;24.718;2022-10-30T09:00:53;8.52;;;3.58;;
11829;SDS011;5972;42.134;24.718;2022-10-30T09:03:19;6.85;;;3.20;;
11829;SDS011;5972;42.134;24.718;2022-10-30T09:05:46;7.65;;;3.30;;
11829;SDS011;5972;42.134;24.718;2022-10-30T09:08:13;4.72;;;3.15;;
11829;SDS011;5972;42.134;24.718;2022-10-30T09:10:41;5.88;;;3.35;;
11829;SDS011;5972;42.134;24.718;2022-10-30T09:13:08;5.97;;;3.15;;
11829;SDS011;5972;42.134;24.718;2022-10-30T09:15:35;6.10;;;3.08;;
11829;SDS011;5972;42.134;24.718;2022-10-30T09:18:03;6.20;;;3.53;;
11829;SDS011;5972;42.134;24.718;2022-10-30T09:20:30;5.50;;;3.00;;
11829;SDS011;5972;42.134;24.718;2022-10-30T09:22:57;5.65;;;3.00;;
11829;SDS011;5972;42.134;24.718;2022-10-30T09:25:24;4.47;;;2.95;;
11829;SDS011;5972;42.134;24.718;2022-10-30T09:27:52;7.30;;;3.03;;
11829;SDS011;5972;42.134;24.718;2022-10-30T09:30:19;5.95;;;2.90;;
11829;SDS011;5972;42.134;24.718;2022-10-30T09:32:52;4.03;;;3.00;;
11829;SDS011;5972;42.134;24.718;2022-10-30T09:35:20;8.10;;;3.03;;
11829;SDS011;5972;42.134;24.718;2022-10-30T09:37:46;5.50;;;3.03;;
11829;SDS011;5972;42.134;24.718;2022-10-30T09:40:17;5.15;;;2.90;;
11829;SDS011;5972;42.134;24.718;2022-10-30T09:42:48;9.45;;;2.65;;
11829;SDS011;5972;42.134;24.718;2022-10-30T09:48:30;6.15;;;2.58;;
11829;SDS011;5972;42.134;24.718;2022-10-30T09:51:13;4.03;;;2.30;;
11829;SDS011;5972;42.134;24.718;2022-10-30T09:53:59;4.38;;;2.30;;
11829;SDS011;5972;42.134;24.718;2022-10-30T09:56:35;4.10;;;2.70;;
11829;SDS011;5972;42.134;24.718;2022-10-30T09:59:11;6.00;;;2.60;;
11829;SDS011;5972;42.134;24.718;2022-10-30T10:01:50;7.78;;;2.60;;
11829;SDS011;5972;42.134;24.718;2022-10-30T10:04:22;2.83;;;2.30;;
11829;SDS011;5972;42.134;24.718;2022-10-30T10:06:54;4.75;;;2.65;;
11829;SDS011;5972;42.134;24.718;2022-10-30T10:09:27;4.75;;;2.80;;
11829;SDS011;5972;42.134;24.718;2022-10-30T10:11:57;6.07;;;3.35;;
11829;SDS011;5972;42.134;24.718;2022-10-30T10:14:28;4.15;;;3.30;;
11829;SDS011;5972;42.134;24.718;2022-10-30T10:16:59;6.38;;;3.08;;
11829;SDS011;5972;42.134;24.718;2022-10-30T10:19:30;8.85;;;3.58;;
11829;SDS011;5972;42.134;24.718;2022-10-30T10:22:01;4.38;;;3.67;;
11829;SDS011;5972;42.134;24.718;2022-10-30T10:24:32;4.88;;;4.38;;
11829;SDS011;5972;42.134;24.718;2022-10-30T10:27:03;6.45;;;4.18;;
11829;SDS011;5972;42.134;24.718;2022-10-30T10:29:39;4.28;;;3.22;;
11829;SDS011;5972;42.134;24.718;2022-10-30T10:32:18;5.28;;;3.08;;
11829;SDS011;5972;42.134;24.718;2022-10-30T10:35:20;6.70;;;2.58;;
11829;SDS011;5972;42.134;24.718;2022-10-30T10:37:56;2.65;;;2.42;;
11829;SDS011;5972;42.134;24.718;2022-10-30T10:40:34;3.53;;;2.42;;
11829;SDS011;5972;42.134;24.718;2022-10-30T10:43:16;3.70;;;2.30;;
11829;SDS011;5972;42.134;24.718;2022-10-30T10:45:54;4.85;;;2.50;;
11829;SDS011;5972;42.134;24.718;2022-10-30T10:48:42;6.68;;;2.45;;
11829;SDS011;5972;42.134;24.718;2022-10-30T10:51:20;2.28;;;2.08;;
11829;SDS011;5972;42.134;24.718;2022-10-30T10:53:51;4.97;;;2.40;;
11829;SDS011;5972;42.134;24.718;2022-10-30T10:56:23;4.00;;;2.00;;
11829;SDS011;5972;42.134;24.718;2022-10-30T10:58:53;6.20;;;2.28;;
11829;SDS011;5972;42.134;24.718;2022-10-30T11:01:24;7.00;;;2.20;;
11829;SDS011;5972;42.134;24.718;2022-10-30T11:04:00;2.28;;;2.03;;
11829;SDS011;5972;42.134;24.718;2022-10-30T11:06:30;6.00;;;2.00;;
11829;SDS011;5972;42.134;24.718;2022-10-30T11:09:04;18.58;;;2.58;;
11829;SDS011;5972;42.134;24.718;2022-10-30T11:11:40;5.75;;;2.00;;
11829;SDS011;5972;42.134;24.718;2022-10-30T11:14:10;3.13;;;2.30;;
11829;SDS011;5972;42.134;24.718;2022-10-30T11:16:45;3.92;;;2.20;;
11829;SDS011;5972;42.134;24.718;2022-10-30T11:19:21;3.33;;;1.95;;
11829;SDS011;5972;42.134;24.718;2022-10-30T11:21:49;4.90;;;2.17;;
11829;SDS011;5972;42.134;24.718;2022-10-30T11:24:26;4.22;;;2.20;;
11829;SDS011;5972;42.134;24.718;2022-10-30T11:26:55;3.30;;;2.15;;
11829;SDS011;5972;42.134;24.718;2022-10-30T11:29:24;13.90;;;3.67;;
11829;SDS011;5972;42.134;24.718;2022-10-30T11:31:58;56.05;;;4.57;;
11829;SDS011;5972;42.134;24.718;2022-10-30T11:34:35;18.40;;;3.35;;
11829;SDS011;5972;42.134;24.718;2022-10-30T11:37:04;24.35;;;4.22;;
11829;SDS011;5972;42.134;24.718;2022-10-30T11:40:00;13.80;;;2.70;;
11829;SDS011;5972;42.134;24.718;2022-10-30T11:42:28;23.63;;;2.80;;
11829;SDS011;5972;42.134;24.718;2022-10-30T11:44:56;11.38;;;10.25;;
11829;SDS011;5972;42.134;24.718;2022-10-30T11:47:25;7.13;;;2.20;;
11829;SDS011;5972;42.134;24.718;2022-10-30T11:49:59;6.50;;;2.20;;
11829;SDS011;5972;42.134;24.718;2022-10-30T11:52:28;5.95;;;2.35;;
11829;SDS011;5972;42.134;24.718;2022-10-30T11:55:01;2.30;;;1.92;;
11829;SDS011;5972;42.134;24.718;2022-10-30T11:57:35;4.50;;;2.20;;
11829;SDS011;5972;42.134;24.718;2022-10-30T12:00:07;2.75;;;1.90;;
11829;SDS011;5972;42.134;24.718;2022-10-30T12:02:41;6.32;;;1.98;;
11829;SDS011;5972;42.134;24.718;2022-10-30T12:05:30;4.25;;;1.95;;
11829;SDS011;5972;42.134;24.718;2022-10-30T12:08:15;3.45;;;1.70;;
11829;SDS011;5972;42.134;24.718;2022-10-30T12:10:45;3.33;;;1.83;;
11829;SDS011;5972;42.134;24.718;2022-10-30T12:13:20;6.63;;;1.50;;
11829;SDS011;5972;42.134;24.718;2022-10-30T12:15:49;2.70;;;1.70;;
11829;SDS011;5972;42.134;24.718;2022-10-30T12:18:28;4.63;;;1.77;;
11829;SDS011;5972;42.134;24.718;2022-10-30T12:20:57;6.57;;;1.77;;
11829;SDS011;5972;42.134;24.718;2022-10-30T12:23:25;3.15;;;1.40;;
11829;SDS011;5972;42.134;24.718;2022-10-30T12:25:54;4.13;;;1.70;;
11829;SDS011;5972;42.134;24.718;2022-10-30T12:28:24;4.07;;;1.65;;
11829;SDS011;5972;42.134;24.718;2022-10-30T12:30:53;6.35;;;1.70;;
11829;SDS011;5972;42.134;24.718;2022-10-30T12:33:26;3.58;;;1.50;;
11829;SDS011;5972;42.134;24.718;2022-10-30T12:36:02;5.60;;;1.60;;
11829;SDS011;5972;42.134;24.718;2022-10-30T12:38:32;3.63;;;1.60;;
11829;SDS011;5972;42.134;24.718;2022-10-30T12:41:05;4.28;;;1.55;;
11829;SDS011;5972;42.134;24.718;2022-10-30T12:43:38;5.82;;;1.65;;
11829;SDS011;5972;42.134;24.718;2022-10-30T12:46:12;3.72;;;1.40;;
11829;SDS011;5972;42.134;24.718;2022-10-30T12:48:48;2.97;;;1.50;;
11829;SDS011;5972;42.134;24.718;2022-10-30T12:51:22;6.28;;;1.55;;
11829;SDS011;5972;42.134;24.718;2022-10-30T12:53:58;2.47;;;1.42;;
11829;SDS011;5972;42.134;24.718;2022-10-30T12:56:34;2.75;;;1.50;;
11829;SDS011;5972;42.134;24.718;2022-10-30T12:59:14;2.47;;;1.65;;
11829;SDS011;5972;42.134;24.718;2022-10-30T13:01:58;2.95;;;1.45;;
11829;SDS011;5972;42.134;24.718;2022-10-30T13:04:38;13.20;;;1.88;;
11829;SDS011;5972;42.134;24.718;2022-10-30T13:07:11;4.18;;;1.70;;
11829;SDS011;5972;42.134;24.718;2022-10-30T13:09:48;3.28;;;1.42;;
11829;SDS011;5972;42.134;24.718;2022-10-30T13:12:24;3.00;;;1.73;;
11829;SDS011;5972;42.134;24.718;2022-10-30T13:15:00;3.55;;;2.00;;
11829;SDS011;5972;42.134;24.718;2022-10-30T13:17:31;6.82;;;1.98;;
11829;SDS011;5972;42.134;24.718;2022-10-30T13:19:58;5.13;;;2.08;;
11829;SDS011;5972;42.134;24.718;2022-10-30T13:22:27;5.40;;;1.50;;
11829;SDS011;5972;42.134;24.718;2022-10-30T13:25:03;9.07;;;1.85;;
11829;SDS011;5972;42.134;24.718;2022-10-30T13:27:40;5.18;;;1.80;;
11829;SDS011;5972;42.134;24.718;2022-10-30T13:30:11;6.82;;;1.75;;
11829;SDS011;5972;42.134;24.718;2022-10-30T13:32:44;4.70;;;2.20;;
11829;SDS011;5972;42.134;24.718;2022-10-30T13:35:28;5.32;;;1.95;;
11829;SDS011;5972;42.134;24.718;2022-10-30T13:38:05;8.73;;;2.10;;
11829;SDS011;5972;42.134;24.718;2022-10-30T13:40:45;5.47;;;1.83;;
11829;SDS011;5972;42.134;24.718;2022-10-30T13:43:20;6.03;;;2.03;;
11829;SDS011;5972;42.134;24.718;2022-10-30T13:46:06;7.43;;;1.98;;
11829;SDS011;5972;42.134;24.718;2022-10-30T13:48:47;6.72;;;1.95;;
11829;SDS011;5972;42.134;24.718;2022-10-30T13:51:25;3.35;;;1.80;;
11829;SDS011;5972;42.134;24.718;2022-10-30T13:54:02;7.60;;;2.20;;
11829;SDS011;5972;42.134;24.718;2022-10-30T13:56:35;7.53;;;2.20;;
11829;SDS011;5972;42.134;24.718;2022-10-30T13:59:09;5.25;;;2.17;;
11829;SDS011;5972;42.134;24.718;2022-10-30T14:01:49;3.35;;;2.50;;
11829;SDS011;5972;42.134;24.718;2022-10-30T14:04:24;4.47;;;2.40;;
11829;SDS011;5972;42.134;24.718;2022-10-30T14:06:58;6.30;;;2.53;;
11829;SDS011;5972;42.134;24.718;2022-10-30T14:09:43;3.80;;;2.40;;
11829;SDS011;5972;42.134;24.718;2022-10-30T14:15:14;8.40;;;2.70;;
11829;SDS011;5972;42.134;24.718;2022-10-30T14:20:50;6.35;;;2.80;;
11829;SDS011;5972;42.134;24.718;2022-10-30T14:23:19;10.10;;;2.97;;
11829;SDS011;5972;42.134;24.718;2022-10-30T14:28:47;9.32;;;2.80;;
11829;SDS011;5972;42.134;24.718;2022-10-30T14:31:16;5.22;;;2.67;;
11829;SDS011;5972;42.134;24.718;2022-10-30T14:33:45;11.45;;;3.25;;
11829;SDS011;5972;42.134;24.718;2022-10-30T14:36:15;6.90;;;3.00;;
11829;SDS011;5972;42.134;24.718;2022-10-30T14:38:59;9.63;;;2.90;;
11829;SDS011;5972;42.134;24.718;2022-10-30T14:41:49;9.70;;;3.08;;
11829;SDS011;5972;42.134;24.718;2022-10-30T14:44:41;6.93;;;2.85;;
11829;SDS011;5972;42.134;24.718;2022-10-30T14:47:26;8.27;;;3.15;;
11829;SDS011;5972;42.134;24.718;2022-10-30T14:50:14;7.28;;;3.22;;
11829;SDS011;5972;42.134;24.718;2022-10-30T14:52:51;12.40;;;3.75;;
11829;SDS011;5972;42.134;24.718;2022-10-30T14:55:38;11.00;;;3.90;;
11829;SDS011;5972;42.134;24.718;2022-10-30T14:58:22;14.35;;;4.18;;
11829;SDS011;5972;42.134;24.718;2022-10-30T15:00:51;13.13;;;4.28;;
11829;SDS011;5972;42.134;24.718;2022-10-30T15:03:40;12.50;;;4.35;;
11829;SDS011;5972;42.134;24.718;2022-10-30T15:06:19;12.15;;;3.92;;
11829;SDS011;5972;42.134;24.718;2022-10-30T15:09:02;9.27;;;4.28;;
11829;SDS011;5972;42.134;24.718;2022-10-30T15:11:49;8.95;;;3.97;;
11829;SDS011;5972;42.134;24.718;2022-10-30T15:14:34;13.50;;;4.85;;
11829;SDS011;5972;42.134;24.718;2022-10-30T15:17:03;9.43;;;4.22;;